createdAt,value
2022-10-19T00:01:45.198Z,100.00
2022-10-19T00:04:17.859Z,100.00
2022-10-19T00:06:48.258Z,100.00
2022-10-19T00:09:22.633Z,100.00
2022-10-19T00:11:54.241Z,100.00
2022-10-19T00:14:27.167Z,100.00
2022-10-19T00:16:58.209Z,100.00
2022-10-19T00:19:31.336Z,100.00
2022-10-19T00:22:01.345Z,100.00
2022-10-19T00:24:31.441Z,100.00
2022-10-19T00:27:01.516Z,100.00
2022-10-19T00:29:31.720Z,100.00
2022-10-19T00:32:01.781Z,100.00
2022-10-19T00:34:34.476Z,100.00
2022-10-19T00:37:04.460Z,100.00
2022-10-19T00:39:34.461Z,100.00
2022-10-19T00:42:04.477Z,100.00
2022-10-19T00:45:05.089Z,100.00
2022-10-19T00:47:36.025Z,100.00
2022-10-19T00:50:10.781Z,100.00
2022-10-19T00:52:40.889Z,100.00
2022-10-19T00:55:13.863Z,100.00
2022-10-19T00:57:44.190Z,100.00
2022-10-19T01:00:15.594Z,100.00
2022-10-19T01:02:45.610Z,100.00
2022-10-19T01:05:20.167Z,100.00
2022-10-19T01:07:50.470Z,100.00
2022-10-19T01:10:26.068Z,100.00
2022-10-19T01:13:20.222Z,100.00
2022-10-19T01:16:02.346Z,100.00
2022-10-19T01:18:47.762Z,100.00
2022-10-19T01:21:35.153Z,100.00
2022-10-19T01:24:50.809Z,100.00
2022-10-19T01:28:01.728Z,100.00
2022-10-19T01:30:47.897Z,100.00
2022-10-19T01:33:34.442Z,100.00
2022-10-19T01:36:17.891Z,100.00
2022-10-19T01:39:00.548Z,100.00
2022-10-19T01:41:40.285Z,100.00
2022-10-19T01:44:19.643Z,100.00
2022-10-19T01:47:00.858Z,100.00
2022-10-19T01:49:42.047Z,100.00
2022-10-19T01:52:17.607Z,100.00
2022-10-19T01:54:54.589Z,100.00
2022-10-19T01:57:31.212Z,100.00
2022-10-19T02:00:07.318Z,100.00
2022-10-19T02:02:50.607Z,100.00
2022-10-19T02:05:25.818Z,100.00
2022-10-19T02:08:03.632Z,100.00
2022-10-19T02:10:38.036Z,100.00
2022-10-19T02:13:10.528Z,100.00
2022-10-19T02:15:47.347Z,100.00
2022-10-19T02:18:28.257Z,100.00
2022-10-19T02:20:58.869Z,100.00
2022-10-19T02:23:30.086Z,100.00
2022-10-19T02:26:01.277Z,100.00
2022-10-19T02:28:32.977Z,100.00
2022-10-19T02:31:03.796Z,100.00
2022-10-19T02:33:36.655Z,100.00
2022-10-19T02:36:07.404Z,100.00
2022-10-19T02:38:38.088Z,100.00
2022-10-19T02:41:18.840Z,100.00
2022-10-19T02:43:56.235Z,100.00
2022-10-19T02:46:35.188Z,100.00
2022-10-19T02:49:10.876Z,100.00
2022-10-19T02:51:44.074Z,100.00
2022-10-19T02:54:14.072Z,100.00
2022-10-19T02:56:44.169Z,100.00
2022-10-19T02:59:14.257Z,100.00
2022-10-19T03:01:44.353Z,100.00
2022-10-19T03:04:17.061Z,100.00
2022-10-19T03:06:47.326Z,100.00
2022-10-19T03:09:17.341Z,100.00
2022-10-19T03:11:47.385Z,100.00
2022-10-19T03:14:17.515Z,100.00
2022-10-19T03:16:47.551Z,100.00
2022-10-19T03:19:20.171Z,100.00
2022-10-19T03:21:50.221Z,100.00
2022-10-19T03:24:20.651Z,100.00
2022-10-19T03:26:50.695Z,100.00
2022-10-19T03:29:20.717Z,100.00
2022-10-19T03:31:50.937Z,100.00
2022-10-19T03:34:23.633Z,100.00
2022-10-19T03:36:53.728Z,100.00
2022-10-19T03:39:23.758Z,100.00
2022-10-19T03:41:54.004Z,100.00
2022-10-19T03:44:24.007Z,100.00
2022-10-19T03:46:54.178Z,100.00
2022-10-19T03:49:27.368Z,100.00
2022-10-19T03:51:57.371Z,100.00
2022-10-19T03:54:27.647Z,100.00
2022-10-19T03:56:57.789Z,100.00
2022-10-19T03:59:27.844Z,100.00
2022-10-19T04:01:57.859Z,100.00
2022-10-19T04:04:30.490Z,100.00
2022-10-19T04:07:00.528Z,100.00
2022-10-19T04:09:30.692Z,100.00
2022-10-19T04:12:00.707Z,100.00
2022-10-19T04:14:33.072Z,100.00
2022-10-19T04:17:09.372Z,100.00
2022-10-19T04:19:42.005Z,100.00
2022-10-19T04:22:12.017Z,100.00
2022-10-19T04:24:41.999Z,100.00
2022-10-19T04:27:11.965Z,100.00
2022-10-19T04:29:41.988Z,100.00
2022-10-19T04:32:12.053Z,100.00
2022-10-19T04:34:44.613Z,100.00
2022-10-19T04:37:14.617Z,100.00
2022-10-19T04:39:44.792Z,100.00
2022-10-19T04:42:14.884Z,100.00
2022-10-19T04:44:44.949Z,100.00
2022-10-19T04:47:15.672Z,100.00
2022-10-19T04:49:48.277Z,100.00
2022-10-19T04:52:18.309Z,100.00
2022-10-19T04:54:49.082Z,100.00
2022-10-19T04:57:19.126Z,100.00
2022-10-19T04:59:50.494Z,100.00
2022-10-19T05:02:20.597Z,100.00
2022-10-19T05:04:53.739Z,100.00
2022-10-19T05:07:23.730Z,100.00
2022-10-19T05:09:53.813Z,100.00
2022-10-19T05:12:23.849Z,100.00
2022-10-19T05:14:53.858Z,100.00
2022-10-19T05:17:23.949Z,100.00
2022-10-19T05:19:56.579Z,100.00
2022-10-19T05:22:26.679Z,100.00
2022-10-19T05:24:58.187Z,100.00
2022-10-19T05:27:28.553Z,100.00
2022-10-19T05:29:58.642Z,100.00
2022-10-19T05:32:30.174Z,100.00
2022-10-19T05:35:03.003Z,100.00
2022-10-19T05:37:33.515Z,100.00
2022-10-19T05:40:03.741Z,100.00
2022-10-19T05:42:33.840Z,100.00
2022-10-19T05:45:03.829Z,100.00
2022-10-19T05:47:35.292Z,100.00
2022-10-19T05:50:09.295Z,100.00
2022-10-19T05:52:39.327Z,100.00
2022-10-19T05:55:11.389Z,100.00
2022-10-19T05:57:41.404Z,100.00
2022-10-19T06:00:14.352Z,100.00
2022-10-19T06:02:44.668Z,100.00
2022-10-19T06:05:17.496Z,100.00
2022-10-19T06:07:47.561Z,100.00
2022-10-19T06:10:17.784Z,100.00
2022-10-19T06:12:47.837Z,100.00
2022-10-19T06:15:18.044Z,100.00
2022-10-19T06:17:48.233Z,100.00
2022-10-19T06:20:21.125Z,100.00
2022-10-19T06:22:51.132Z,100.00
2022-10-19T06:25:21.152Z,100.00
2022-10-19T06:27:51.284Z,100.00
2022-10-19T06:30:21.496Z,100.00
2022-10-19T06:32:51.698Z,100.00
2022-10-19T06:35:24.430Z,100.00
2022-10-19T06:37:54.449Z,100.00
2022-10-19T06:40:24.649Z,100.00
2022-10-19T06:42:55.184Z,100.00
2022-10-19T06:45:25.321Z,100.00
2022-10-19T06:47:55.622Z,100.00
2022-10-19T06:50:28.245Z,100.00
2022-10-19T06:52:58.284Z,100.00
2022-10-19T06:55:28.695Z,100.00
2022-10-19T06:57:58.688Z,100.00
2022-10-19T07:00:28.651Z,100.00
2022-10-19T07:02:59.153Z,100.00
2022-10-19T07:05:31.836Z,100.00
2022-10-19T07:08:01.923Z,100.00
2022-10-19T07:10:32.045Z,100.00
2022-10-19T07:13:02.150Z,100.00
2022-10-19T07:15:32.225Z,100.00
2022-10-19T07:18:02.483Z,100.00
2022-10-19T07:20:35.095Z,100.00
2022-10-19T07:23:05.372Z,100.00
2022-10-19T07:25:35.576Z,100.00
2022-10-19T07:28:05.681Z,100.00
2022-10-19T07:30:35.844Z,100.00
2022-10-19T07:33:06.793Z,100.00
2022-10-19T07:35:39.519Z,100.00
2022-10-19T07:38:09.537Z,100.00
2022-10-19T07:40:43.568Z,100.00
2022-10-19T07:43:16.450Z,100.00
2022-10-19T07:45:46.419Z,100.00
2022-10-19T07:48:16.377Z,100.00
2022-10-19T07:50:52.311Z,100.00
2022-10-19T07:53:22.432Z,100.00
2022-10-19T07:55:52.432Z,100.00
2022-10-19T07:58:22.562Z,100.00
2022-10-19T08:00:52.583Z,100.00
2022-10-19T08:06:19.155Z,100.00
2022-10-19T08:08:51.009Z,100.00
2022-10-19T08:11:24.804Z,100.00
2022-10-19T08:13:55.477Z,100.00
2022-10-19T08:16:29.545Z,100.00
2022-10-19T08:19:03.480Z,100.00
2022-10-19T08:21:37.144Z,100.00
2022-10-19T08:24:07.967Z,100.00
2022-10-19T08:26:40.876Z,100.00
2022-10-19T08:29:15.117Z,100.00
2022-10-19T08:31:47.392Z,100.00
2022-10-19T08:34:18.709Z,100.00
2022-10-19T08:36:51.350Z,100.00
2022-10-19T08:39:21.367Z,100.00
2022-10-19T08:42:04.655Z,100.00
2022-10-19T08:44:58.754Z,100.00
2022-10-19T08:47:57.147Z,100.00
2022-10-19T08:50:32.376Z,100.00
2022-10-19T08:53:09.211Z,100.00
2022-10-19T08:55:55.435Z,100.00
2022-10-19T08:58:59.621Z,100.00
2022-10-19T09:01:43.590Z,100.00
2022-10-19T09:04:24.068Z,100.00
2022-10-19T09:07:28.353Z,100.00
2022-10-19T09:10:12.231Z,100.00
2022-10-19T09:12:55.088Z,100.00
2022-10-19T09:15:37.356Z,100.00
2022-10-19T09:18:12.644Z,100.00
2022-10-19T09:20:48.447Z,100.00
2022-10-19T09:23:29.333Z,100.00
2022-10-19T09:26:02.034Z,100.00
2022-10-19T09:28:48.253Z,100.00
2022-10-19T09:31:31.457Z,100.00
2022-10-19T09:34:06.231Z,100.00
2022-10-19T09:36:50.358Z,100.00
2022-10-19T09:39:23.479Z,100.00
2022-10-19T09:42:00.834Z,100.00
2022-10-19T09:44:31.319Z,100.00
2022-10-19T09:47:27.490Z,100.00
2022-10-19T09:50:17.208Z,100.00
2022-10-19T09:52:49.054Z,100.00
2022-10-19T09:55:30.019Z,100.00
2022-10-19T09:58:18.916Z,100.00
2022-10-19T10:00:54.911Z,100.00
2022-10-19T10:03:33.103Z,100.00
2022-10-19T10:06:08.619Z,100.00
2022-10-19T10:08:42.818Z,100.00
2022-10-19T10:11:16.872Z,100.00
2022-10-19T10:13:55.809Z,100.00
2022-10-19T10:16:33.813Z,100.00
2022-10-19T10:19:08.486Z,100.00
2022-10-19T10:21:52.623Z,100.00
2022-10-19T10:24:25.223Z,100.00
2022-10-19T10:26:58.857Z,100.00
2022-10-19T10:29:34.754Z,100.00
2022-10-19T10:32:10.481Z,100.00
2022-10-19T10:34:50.628Z,100.00
2022-10-19T10:37:27.164Z,100.00
2022-10-19T10:40:03.502Z,100.00
2022-10-19T10:42:44.702Z,100.00
2022-10-19T10:45:28.727Z,100.00
2022-10-19T10:48:00.749Z,100.00
2022-10-19T10:50:39.195Z,100.00
2022-10-19T10:53:38.294Z,100.00
2022-10-19T10:56:24.455Z,100.00
2022-10-19T10:59:01.639Z,100.00
2022-10-19T11:01:43.908Z,100.00
2022-10-19T11:04:20.783Z,100.00
2022-10-19T11:07:02.051Z,100.00
2022-10-19T11:09:39.294Z,94.46
2022-10-19T11:12:18.940Z,88.19
2022-10-19T11:14:53.750Z,83.28
2022-10-19T11:17:33.353Z,87.03
2022-10-19T11:20:03.718Z,89.47
2022-10-19T11:22:42.567Z,89.64
2022-10-19T11:25:35.341Z,89.71
2022-10-19T11:28:26.372Z,91.29
2022-10-19T11:31:07.017Z,91.67
2022-10-19T11:33:57.981Z,95.21
2022-10-19T11:36:48.608Z,95.33
2022-10-19T11:39:38.389Z,95.82
2022-10-19T11:42:21.725Z,94.85
2022-10-19T11:45:08.669Z,90.42
2022-10-19T11:48:01.852Z,87.06
2022-10-19T11:50:54.207Z,84.54
2022-10-19T11:53:44.819Z,82.97
2022-10-19T11:56:38.895Z,84.48
2022-10-19T11:59:31.206Z,87.29
2022-10-19T12:02:25.976Z,89.22
2022-10-19T12:05:01.485Z,86.38
2022-10-19T12:07:57.697Z,91.51
2022-10-19T12:10:38.403Z,91.24
2022-10-19T12:13:15.499Z,93.24
2022-10-19T12:15:53.817Z,93.17
2022-10-19T12:18:34.933Z,90.93
2022-10-19T12:21:12.413Z,88.79
2022-10-19T12:23:48.935Z,85.05
2022-10-19T12:26:22.722Z,89.28
2022-10-19T12:28:58.331Z,86.07
2022-10-19T12:31:31.053Z,83.63
2022-10-19T12:34:10.605Z,84.36
2022-10-19T12:36:54.372Z,85.25
2022-10-19T12:39:37.690Z,83.33
2022-10-19T12:42:21.222Z,83.02
2022-10-19T12:45:26.594Z,79.01
2022-10-19T12:48:24.589Z,78.41
2022-10-19T12:51:12.184Z,76.15
2022-10-19T12:53:48.795Z,76.86
2022-10-19T12:56:29.494Z,75.64
2022-10-19T12:59:03.941Z,77.25
2022-10-19T13:01:48.194Z,76.93
2022-10-19T13:04:23.905Z,77.92
2022-10-19T13:07:04.032Z,76.09
2022-10-19T13:09:39.048Z,79.00
2022-10-19T13:14:59.899Z,80.80
2022-10-19T13:17:48.455Z,80.02
2022-10-19T13:20:54.433Z,80.46
2022-10-19T13:23:42.974Z,84.41
2022-10-19T13:26:37.110Z,89.83
2022-10-19T13:29:28.930Z,93.13
2022-10-19T13:32:49.023Z,94.11
2022-10-19T13:35:32.277Z,96.68
2022-10-19T13:38:37.442Z,98.17
2022-10-19T13:41:18.246Z,100.00
2022-10-19T13:44:04.458Z,100.00
2022-10-19T13:46:57.029Z,100.00
2022-10-19T13:50:16.252Z,100.00
2022-10-19T13:53:18.388Z,100.00
2022-10-19T13:56:29.387Z,100.00
2022-10-19T13:59:54.993Z,100.00
2022-10-19T14:02:58.957Z,100.00
2022-10-19T14:06:02.368Z,100.00
2022-10-19T14:09:15.056Z,100.00
2022-10-19T14:11:48.276Z,100.00
2022-10-19T14:14:21.970Z,100.00
2022-10-19T14:17:01.187Z,100.00
2022-10-19T14:19:44.584Z,100.00
2022-10-19T14:22:30.179Z,100.00
2022-10-19T14:25:08.370Z,100.00
2022-10-19T14:27:39.065Z,100.00
2022-10-19T14:30:24.306Z,100.00
2022-10-19T14:32:59.440Z,100.00
2022-10-19T14:35:37.256Z,100.00
2022-10-19T14:38:11.946Z,100.00
2022-10-19T14:40:44.203Z,100.00
2022-10-19T14:43:25.273Z,100.00
2022-10-19T14:46:16.131Z,100.00
2022-10-19T14:48:49.001Z,100.00
2022-10-19T14:51:37.365Z,100.00
2022-10-19T14:54:17.608Z,100.00
2022-10-19T14:56:56.234Z,100.00
2022-10-19T14:59:31.990Z,100.00
2022-10-19T15:02:08.079Z,100.00
2022-10-19T15:04:42.362Z,100.00
2022-10-19T15:07:23.674Z,100.00
2022-10-19T15:10:01.727Z,100.00
2022-10-19T15:12:39.248Z,100.00
2022-10-19T15:15:19.466Z,100.00
2022-10-19T15:17:56.695Z,100.00
2022-10-19T15:20:36.384Z,100.00
2022-10-19T15:23:41.027Z,100.00
2022-10-19T15:26:24.814Z,100.00
2022-10-19T15:28:56.325Z,100.00
2022-10-19T15:31:31.838Z,100.00
2022-10-19T15:34:05.505Z,100.00
2022-10-19T15:36:36.345Z,100.00
2022-10-19T15:39:25.045Z,100.00
2022-10-19T15:41:58.526Z,100.00
2022-10-19T15:44:42.923Z,100.00
2022-10-19T15:47:25.523Z,100.00
2022-10-19T15:50:03.986Z,100.00
2022-10-19T15:52:36.965Z,100.00
2022-10-19T15:55:07.936Z,100.00
2022-10-19T15:57:41.671Z,100.00
2022-10-19T16:00:20.320Z,100.00
2022-10-19T16:02:50.490Z,100.00
2022-10-19T16:05:20.829Z,100.00
2022-10-19T16:07:51.222Z,100.00
2022-10-19T16:10:24.432Z,100.00
2022-10-19T16:12:57.256Z,100.00
2022-10-19T16:15:27.701Z,100.00
2022-10-19T16:18:01.338Z,100.00
2022-10-19T16:20:32.961Z,100.00
2022-10-19T16:23:03.278Z,100.00
2022-10-19T16:25:33.310Z,100.00
2022-10-19T16:28:06.457Z,100.00
2022-10-19T16:30:36.493Z,100.00
2022-10-19T16:33:07.112Z,100.00
2022-10-19T16:35:37.148Z,100.00
2022-10-19T16:38:07.252Z,100.00
2022-10-19T16:40:37.374Z,100.00
2022-10-19T16:43:10.314Z,100.00
2022-10-19T16:45:45.817Z,100.00
2022-10-19T16:48:17.409Z,100.00
2022-10-19T16:50:49.010Z,100.00
2022-10-19T16:53:19.067Z,100.00
2022-10-19T16:55:49.148Z,100.00
2022-10-19T16:58:21.866Z,100.00
2022-10-19T17:00:52.242Z,100.00
2022-10-19T17:03:22.481Z,100.00
2022-10-19T17:05:52.547Z,100.00
2022-10-19T17:08:36.384Z,100.00
2022-10-19T17:11:16.958Z,100.00
2022-10-19T17:13:53.051Z,100.00
2022-10-19T17:16:25.563Z,100.00
2022-10-19T17:18:58.705Z,100.00
2022-10-19T17:21:31.850Z,100.00
2022-10-19T17:24:05.593Z,100.00
2022-10-19T17:26:39.020Z,100.00
2022-10-19T17:29:12.624Z,100.00
2022-10-19T17:31:44.857Z,100.00
2022-10-19T17:34:15.270Z,100.00
2022-10-19T17:36:48.038Z,100.00
2022-10-19T17:39:25.545Z,100.00
2022-10-19T17:42:03.318Z,100.00
2022-10-19T17:44:36.134Z,100.00
2022-10-19T17:47:06.524Z,100.00
2022-10-19T17:49:36.618Z,100.00
2022-10-19T17:52:06.843Z,100.00
2022-10-19T17:54:48.527Z,100.00
2022-10-19T17:57:27.346Z,100.00
2022-10-19T18:00:00.088Z,100.00
2022-10-19T18:02:30.254Z,100.00
2022-10-19T18:05:00.345Z,100.00
2022-10-19T18:07:30.858Z,100.00
2022-10-19T18:10:00.932Z,100.00
2022-10-19T18:12:31.418Z,100.00
2022-10-19T18:15:04.289Z,100.00
2022-10-19T18:17:34.919Z,100.00
2022-10-19T18:20:05.311Z,100.00
2022-10-19T18:22:35.627Z,100.00
2022-10-19T18:25:05.942Z,100.00
2022-10-19T18:27:37.592Z,100.00
2022-10-19T18:30:12.255Z,100.00
2022-10-19T18:32:42.370Z,100.00
2022-10-19T18:35:12.959Z,100.00
2022-10-19T18:37:43.032Z,100.00
2022-10-19T18:40:14.057Z,100.00
2022-10-19T18:42:44.174Z,100.00
2022-10-19T18:45:17.008Z,100.00
2022-10-19T18:47:47.137Z,100.00
2022-10-19T18:50:17.687Z,100.00
2022-10-19T18:52:48.046Z,100.00
2022-10-19T18:55:18.582Z,100.00
2022-10-19T18:57:48.790Z,100.00
2022-10-19T19:00:22.217Z,100.00
2022-10-19T19:02:56.642Z,100.00
2022-10-19T19:05:27.125Z,100.00
2022-10-19T19:07:57.801Z,100.00
2022-10-19T19:10:28.038Z,100.00
2022-10-19T19:12:58.106Z,100.00
2022-10-19T19:15:30.738Z,100.00
2022-10-19T19:18:00.772Z,100.00
2022-10-19T19:20:30.808Z,100.00
2022-10-19T19:23:00.886Z,100.00
2022-10-19T19:25:32.136Z,100.00
2022-10-19T19:28:02.429Z,100.00
2022-10-19T19:30:35.441Z,100.00
2022-10-19T19:33:05.650Z,100.00
2022-10-19T19:35:35.784Z,100.00
2022-10-19T19:38:05.833Z,100.00
2022-10-19T19:40:36.292Z,100.00
2022-10-19T19:43:06.432Z,100.00
2022-10-19T19:45:40.883Z,100.00
2022-10-19T19:48:12.944Z,100.00
2022-10-19T19:50:43.018Z,100.00
2022-10-19T19:53:13.107Z,100.00
2022-10-19T19:55:43.369Z,100.00
2022-10-19T19:58:15.496Z,100.00
2022-10-19T20:00:48.849Z,100.00
2022-10-19T20:03:18.953Z,100.00
2022-10-19T20:05:49.200Z,100.00
2022-10-19T20:08:19.270Z,100.00
2022-10-19T20:10:49.468Z,100.00
2022-10-19T20:13:19.498Z,100.00
2022-10-19T20:15:53.872Z,100.00
2022-10-19T20:18:24.621Z,100.00
2022-10-19T20:20:54.678Z,100.00
2022-10-19T20:23:24.826Z,100.00
2022-10-19T20:25:56.664Z,100.00
2022-10-19T20:28:27.956Z,100.00
2022-10-19T20:31:09.992Z,100.00
2022-10-19T20:33:43.097Z,100.00
2022-10-19T20:36:16.737Z,100.00
2022-10-19T20:38:51.041Z,100.00
2022-10-19T20:41:24.314Z,100.00
2022-10-19T20:43:55.796Z,100.00
2022-10-19T20:46:31.667Z,100.00
2022-10-19T20:49:04.629Z,100.00
2022-10-19T20:51:37.929Z,100.00
2022-10-19T20:54:12.384Z,100.00
2022-10-19T20:56:44.153Z,100.00
2022-10-19T20:59:17.485Z,100.00
2022-10-19T21:01:54.145Z,100.00
2022-10-19T21:04:25.679Z,100.00
2022-10-19T21:06:56.430Z,100.00
2022-10-19T21:09:28.037Z,100.00
2022-10-19T21:11:58.294Z,100.00
2022-10-19T21:14:31.200Z,100.00
2022-10-19T21:17:03.899Z,100.00
2022-10-19T21:19:34.399Z,100.00
2022-10-19T21:22:06.341Z,100.00
2022-10-19T21:24:39.600Z,100.00
2022-10-19T21:27:12.519Z,100.00
2022-10-19T21:29:42.934Z,100.00
2022-10-19T21:32:15.927Z,100.00
2022-10-19T21:34:46.008Z,100.00
2022-10-19T21:37:16.040Z,100.00
2022-10-19T21:39:46.115Z,100.00
2022-10-19T21:42:16.282Z,100.00
2022-10-19T21:44:46.348Z,100.00
2022-10-19T21:47:19.366Z,100.00
2022-10-19T21:49:49.384Z,100.00
2022-10-19T21:52:19.622Z,100.00
2022-10-19T21:54:49.725Z,100.00
2022-10-19T21:57:19.939Z,100.00
2022-10-19T21:59:50.140Z,100.00
2022-10-19T22:02:23.063Z,100.00
2022-10-19T22:04:53.288Z,100.00
2022-10-19T22:07:23.586Z,100.00
2022-10-19T22:09:53.777Z,100.00
2022-10-19T22:12:23.840Z,100.00
2022-10-19T22:14:54.156Z,100.00
2022-10-19T22:17:26.816Z,100.00
2022-10-19T22:19:57.729Z,100.00
2022-10-19T22:22:27.823Z,100.00
2022-10-19T22:24:57.936Z,100.00
2022-10-19T22:27:28.112Z,100.00
2022-10-19T22:29:58.512Z,100.00
2022-10-19T22:32:31.344Z,100.00
2022-10-19T22:35:01.492Z,100.00
2022-10-19T22:37:31.591Z,100.00
2022-10-19T22:40:01.974Z,100.00
2022-10-19T22:42:32.017Z,100.00
2022-10-19T22:45:02.087Z,100.00
2022-10-19T22:47:34.971Z,100.00
2022-10-19T22:50:06.823Z,100.00
2022-10-19T22:52:37.367Z,100.00
2022-10-19T22:55:08.819Z,100.00
2022-10-19T22:57:38.841Z,100.00
2022-10-19T23:00:11.266Z,100.00
2022-10-19T23:02:44.171Z,100.00
2022-10-19T23:05:15.219Z,100.00
2022-10-19T23:07:45.302Z,100.00
2022-10-19T23:10:15.589Z,100.00
2022-10-19T23:12:45.937Z,100.00
2022-10-19T23:15:16.254Z,100.00
2022-10-19T23:17:49.000Z,100.00
2022-10-19T23:20:19.368Z,100.00
2022-10-19T23:22:49.452Z,100.00
2022-10-19T23:25:19.928Z,100.00
2022-10-19T23:27:51.783Z,100.00
2022-10-19T23:30:22.195Z,100.00
2022-10-19T23:32:54.964Z,100.00
2022-10-19T23:35:25.084Z,100.00
2022-10-19T23:37:55.140Z,100.00
2022-10-19T23:40:25.518Z,100.00
2022-10-19T23:42:57.394Z,100.00
2022-10-19T23:45:27.577Z,100.00
2022-10-19T23:48:00.199Z,100.00
2022-10-19T23:50:30.355Z,100.00
2022-10-19T23:53:00.650Z,100.00
2022-10-19T23:55:30.986Z,100.00
2022-10-19T23:58:01.100Z,100.00
